Decoded Metar for OBBI (BAHRAIN in BAHRAIN) (IATA:BAH) | Meteo·Mobile Aviation Weather
aviador You're here:

OBBI Decoded Metar

BAHRAIN in BAHRAIN
Report Time2019-10-22 13:30:00
UTC Time2019-10-22 13:26:41
Flight Rules vfr VFR
Wind090° at 08 kt
W.Decomp.*RWY 12: 6.8 kt HW 4.2 kt LCW
Visibility9999 m
Phenomena:N/A
Clouds:N/A
Expected CloudBase > 3,600 ft AGL from Temp-Dew spread
CeilingNone
Temp33°C (ISA +18)
Dew Point24°C (59% RH)
Heat Index39.2°C
QNH1009 hPa
Density Alt2,585 ft
Elevation7 ft
Report Wrong Elevation
Raw Report
METAR OBBI 221330Z 09008KT CAVOK 33/24 Q1009 NOSIG=####018000078####
SAUK36 EGGY 221320 RRA

Extra information for OBBI:More info

Metar Taf Metar & Taf Last 4 Metars F.Rules Stats Wind Profile Meteogram Temp Stats Airport Information Weather charts Add Link Nearby VenuesMetar ALERT Operation Metar Decoded Social comments